sensor_id;sensor_type;location;lat;lon;timestamp;temperature;humidity
65207;SHT31;58477;48.072;11.970;2023-03-11T00:00:16;2.42;78.52
65207;SHT31;58477;48.072;11.970;2023-03-11T00:02:47;2.38;78.71
65207;SHT31;58477;48.072;11.970;2023-03-11T00:05:16;2.32;79.34
65207;SHT31;58477;48.072;11.970;2023-03-11T00:07:42;2.29;79.07
65207;SHT31;58477;48.072;11.970;2023-03-11T00:10:12;2.29;79.00
65207;SHT31;58477;48.072;11.970;2023-03-11T00:12:37;2.26;78.63
65207;SHT31;58477;48.072;11.970;2023-03-11T00:15:03;2.21;78.49
65207;SHT31;58477;48.072;11.970;2023-03-11T00:17:29;2.14;78.13
65207;SHT31;58477;48.072;11.970;2023-03-11T00:19:54;2.07;77.46
65207;SHT31;58477;48.072;11.970;2023-03-11T00:22:19;2.01;76.46
65207;SHT31;58477;48.072;11.970;2023-03-11T00:24:45;1.98;76.07
65207;SHT31;58477;48.072;11.970;2023-03-11T00:27:10;1.93;75.15
65207;SHT31;58477;48.072;11.970;2023-03-11T00:29:36;1.81;74.98
65207;SHT31;58477;48.072;11.970;2023-03-11T00:32:01;1.77;75.63
65207;SHT31;58477;48.072;11.970;2023-03-11T00:34:28;1.71;75.32
65207;SHT31;58477;48.072;11.970;2023-03-11T00:36:53;1.63;75.64
65207;SHT31;58477;48.072;11.970;2023-03-11T00:39:19;1.55;75.37
65207;SHT31;58477;48.072;11.970;2023-03-11T00:41:44;1.61;74.78
65207;SHT31;58477;48.072;11.970;2023-03-11T00:44:11;1.58;75.47
65207;SHT31;58477;48.072;11.970;2023-03-11T00:46:37;1.53;75.17
65207;SHT31;58477;48.072;11.970;2023-03-11T00:49:02;1.48;74.82
65207;SHT31;58477;48.072;11.970;2023-03-11T00:51:28;1.48;74.87
65207;SHT31;58477;48.072;11.970;2023-03-11T00:53:53;1.53;74.93
65207;SHT31;58477;48.072;11.970;2023-03-11T00:56:19;1.48;75.06
65207;SHT31;58477;48.072;11.970;2023-03-11T00:58:44;1.46;75.45
65207;SHT31;58477;48.072;11.970;2023-03-11T01:01:15;1.50;75.12
65207;SHT31;58477;48.072;11.970;2023-03-11T01:03:41;1.43;75.92
65207;SHT31;58477;48.072;11.970;2023-03-11T01:06:09;1.36;75.90
65207;SHT31;58477;48.072;11.970;2023-03-11T01:08:35;1.26;76.19
65207;SHT31;58477;48.072;11.970;2023-03-11T01:11:01;1.33;76.30
65207;SHT31;58477;48.072;11.970;2023-03-11T01:13:28;1.30;76.63
65207;SHT31;58477;48.072;11.970;2023-03-11T01:15:54;1.30;76.20
65207;SHT31;58477;48.072;11.970;2023-03-11T01:18:20;1.23;77.08
65207;SHT31;58477;48.072;11.970;2023-03-11T01:20:46;1.32;76.82
65207;SHT31;58477;48.072;11.970;2023-03-11T01:23:13;1.33;76.83
65207;SHT31;58477;48.072;11.970;2023-03-11T01:25:39;1.32;76.60
65207;SHT31;58477;48.072;11.970;2023-03-11T01:28:05;1.26;77.38
65207;SHT31;58477;48.072;11.970;2023-03-11T01:30:33;1.23;77.59
65207;SHT31;58477;48.072;11.970;2023-03-11T01:32:59;1.24;77.22
65207;SHT31;58477;48.072;11.970;2023-03-11T01:35:26;1.27;77.39
65207;SHT31;58477;48.072;11.970;2023-03-11T01:37:52;1.33;77.21
65207;SHT31;58477;48.072;11.970;2023-03-11T01:40:39;1.40;77.01
65207;SHT31;58477;48.072;11.970;2023-03-11T01:46:22;1.48;76.26
65207;SHT31;58477;48.072;11.970;2023-03-11T01:48:59;1.43;76.82
65207;SHT31;58477;48.072;11.970;2023-03-11T01:51:45;1.47;76.20
65207;SHT31;58477;48.072;11.970;2023-03-11T01:54:20;1.44;76.54
65207;SHT31;58477;48.072;11.970;2023-03-11T01:56:48;1.42;76.17
65207;SHT31;58477;48.072;11.970;2023-03-11T01:59:18;1.36;76.14
65207;SHT31;58477;48.072;11.970;2023-03-11T02:01:51;1.32;76.56
65207;SHT31;58477;48.072;11.970;2023-03-11T02:04:20;1.30;76.17
65207;SHT31;58477;48.072;11.970;2023-03-11T02:06:46;1.27;76.82
65207;SHT31;58477;48.072;11.970;2023-03-11T02:09:12;1.27;76.28
65207;SHT31;58477;48.072;11.970;2023-03-11T02:11:37;1.24;76.51
65207;SHT31;58477;48.072;11.970;2023-03-11T02:14:05;1.27;76.36
65207;SHT31;58477;48.072;11.970;2023-03-11T02:16:32;1.22;75.86
65207;SHT31;58477;48.072;11.970;2023-03-11T02:19:01;1.16;76.43
65207;SHT31;58477;48.072;11.970;2023-03-11T02:21:31;1.17;75.77
65207;SHT31;58477;48.072;11.970;2023-03-11T02:24:26;1.13;75.89
65207;SHT31;58477;48.072;11.970;2023-03-11T02:26:55;1.10;76.01
65207;SHT31;58477;48.072;11.970;2023-03-11T02:29:23;1.03;76.43
65207;SHT31;58477;48.072;11.970;2023-03-11T02:31:49;0.99;76.15
65207;SHT31;58477;48.072;11.970;2023-03-11T02:34:26;0.96;76.19
65207;SHT31;58477;48.072;11.970;2023-03-11T02:36:52;0.88;76.43
65207;SHT31;58477;48.072;11.970;2023-03-11T02:39:52;0.89;76.34
65207;SHT31;58477;48.072;11.970;2023-03-11T02:42:22;0.89;76.46
65207;SHT31;58477;48.072;11.970;2023-03-11T02:45:03;0.89;75.91
65207;SHT31;58477;48.072;11.970;2023-03-11T02:47:30;0.89;75.79
65207;SHT31;58477;48.072;11.970;2023-03-11T02:49:56;0.88;75.95
65207;SHT31;58477;48.072;11.970;2023-03-11T02:52:24;0.78;76.60
65207;SHT31;58477;48.072;11.970;2023-03-11T02:54:53;0.70;77.21
65207;SHT31;58477;48.072;11.970;2023-03-11T02:57:19;0.78;76.47
65207;SHT31;58477;48.072;11.970;2023-03-11T02:59:44;0.72;77.04
65207;SHT31;58477;48.072;11.970;2023-03-11T03:02:12;0.72;76.56
65207;SHT31;58477;48.072;11.970;2023-03-11T03:04:38;0.73;76.67
65207;SHT31;58477;48.072;11.970;2023-03-11T03:07:04;0.68;76.62
65207;SHT31;58477;48.072;11.970;2023-03-11T03:09:30;0.65;77.06
65207;SHT31;58477;48.072;11.970;2023-03-11T03:11:55;0.64;77.36
65207;SHT31;58477;48.072;11.970;2023-03-11T03:14:21;0.62;76.87
65207;SHT31;58477;48.072;11.970;2023-03-11T03:16:47;0.65;76.20
65207;SHT31;58477;48.072;11.970;2023-03-11T03:19:13;0.66;75.95
65207;SHT31;58477;48.072;11.970;2023-03-11T03:21:38;0.65;75.84
65207;SHT31;58477;48.072;11.970;2023-03-11T03:24:04;0.66;76.35
65207;SHT31;58477;48.072;11.970;2023-03-11T03:26:31;0.62;76.09
65207;SHT31;58477;48.072;11.970;2023-03-11T03:28:56;0.62;75.90
65207;SHT31;58477;48.072;11.970;2023-03-11T03:31:22;0.55;76.55
65207;SHT31;58477;48.072;11.970;2023-03-11T03:33:47;0.54;76.10
65207;SHT31;58477;48.072;11.970;2023-03-11T03:36:14;0.52;75.65
65207;SHT31;58477;48.072;11.970;2023-03-11T03:38:43;0.52;75.44
65207;SHT31;58477;48.072;11.970;2023-03-11T03:41:08;0.47;75.74
65207;SHT31;58477;48.072;11.970;2023-03-11T03:43:37;0.45;75.79
65207;SHT31;58477;48.072;11.970;2023-03-11T03:46:04;0.42;75.74
65207;SHT31;58477;48.072;11.970;2023-03-11T03:48:37;0.37;76.04
65207;SHT31;58477;48.072;11.970;2023-03-11T03:51:07;0.31;76.69
65207;SHT31;58477;48.072;11.970;2023-03-11T03:53:35;0.32;76.12
65207;SHT31;58477;48.072;11.970;2023-03-11T03:56:05;0.29;76.64
65207;SHT31;58477;48.072;11.970;2023-03-11T03:58:33;0.29;76.58
65207;SHT31;58477;48.072;11.970;2023-03-11T04:00:59;0.22;76.39
65207;SHT31;58477;48.072;11.970;2023-03-11T04:03:26;0.25;76.53
65207;SHT31;58477;48.072;11.970;2023-03-11T04:06:20;0.27;76.17
65207;SHT31;58477;48.072;11.970;2023-03-11T04:08:50;0.24;76.30
65207;SHT31;58477;48.072;11.970;2023-03-11T04:11:17;0.21;76.76
65207;SHT31;58477;48.072;11.970;2023-03-11T04:13:43;0.18;76.56
65207;SHT31;58477;48.072;11.970;2023-03-11T04:16:15;0.13;77.22
65207;SHT31;58477;48.072;11.970;2023-03-11T04:18:41;0.14;76.35
65207;SHT31;58477;48.072;11.970;2023-03-11T04:21:06;0.22;76.00
65207;SHT31;58477;48.072;11.970;2023-03-11T04:23:33;0.22;76.16
65207;SHT31;58477;48.072;11.970;2023-03-11T04:25:59;0.18;76.33
65207;SHT31;58477;48.072;11.970;2023-03-11T04:28:24;0.18;76.06
65207;SHT31;58477;48.072;11.970;2023-03-11T04:30:50;0.14;76.35
65207;SHT31;58477;48.072;11.970;2023-03-11T04:33:16;0.11;77.09
65207;SHT31;58477;48.072;11.970;2023-03-11T04:35:41;0.08;77.11
65207;SHT31;58477;48.072;11.970;2023-03-11T04:38:07;0.13;76.53
65207;SHT31;58477;48.072;11.970;2023-03-11T04:40:33;0.11;76.78
65207;SHT31;58477;48.072;11.970;2023-03-11T04:42:58;0.15;76.36
65207;SHT31;58477;48.072;11.970;2023-03-11T04:45:24;0.11;76.80
65207;SHT31;58477;48.072;11.970;2023-03-11T04:47:53;0.10;76.48
65207;SHT31;58477;48.072;11.970;2023-03-11T04:50:19;0.03;77.18
65207;SHT31;58477;48.072;11.970;2023-03-11T04:52:46;0.07;76.82
65207;SHT31;58477;48.072;11.970;2023-03-11T04:55:13;0.08;77.04
65207;SHT31;58477;48.072;11.970;2023-03-11T04:57:41;0.07;77.07
65207;SHT31;58477;48.072;11.970;2023-03-11T05:00:10;0.05;77.23
65207;SHT31;58477;48.072;11.970;2023-03-11T05:02:38;0.04;77.59
65207;SHT31;58477;48.072;11.970;2023-03-11T05:05:05;0.00;77.48
65207;SHT31;58477;48.072;11.970;2023-03-11T05:07:31;-0.05;78.20
65207;SHT31;58477;48.072;11.970;2023-03-11T05:09:57;0.01;77.84
65207;SHT31;58477;48.072;11.970;2023-03-11T05:12:23;-0.02;77.90
65207;SHT31;58477;48.072;11.970;2023-03-11T05:14:51;0.00;77.59
65207;SHT31;58477;48.072;11.970;2023-03-11T05:21:04;-0.06;78.46
65207;SHT31;58477;48.072;11.970;2023-03-11T05:23:32;0.00;78.27
65207;SHT31;58477;48.072;11.970;2023-03-11T05:25:58;0.08;77.79
65207;SHT31;58477;48.072;11.970;2023-03-11T05:28:24;0.08;77.68
65207;SHT31;58477;48.072;11.970;2023-03-11T05:30:51;0.05;77.94
65207;SHT31;58477;48.072;11.970;2023-03-11T05:33:18;0.13;78.31
65207;SHT31;58477;48.072;11.970;2023-03-11T05:35:44;0.15;78.14
65207;SHT31;58477;48.072;11.970;2023-03-11T05:38:10;0.18;77.96
65207;SHT31;58477;48.072;11.970;2023-03-11T05:40:36;0.21;78.15
65207;SHT31;58477;48.072;11.970;2023-03-11T05:43:02;0.25;77.97
65207;SHT31;58477;48.072;11.970;2023-03-11T05:45:30;0.25;78.26
65207;SHT31;58477;48.072;11.970;2023-03-11T05:47:58;0.29;78.32
65207;SHT31;58477;48.072;11.970;2023-03-11T05:50:24;0.35;78.39
65207;SHT31;58477;48.072;11.970;2023-03-11T05:52:50;0.38;78.25
65207;SHT31;58477;48.072;11.970;2023-03-11T05:55:16;0.41;78.41
65207;SHT31;58477;48.072;11.970;2023-03-11T05:57:43;0.38;78.35
65207;SHT31;58477;48.072;11.970;2023-03-11T06:00:10;0.37;78.48
65207;SHT31;58477;48.072;11.970;2023-03-11T06:02:39;0.40;78.35
65207;SHT31;58477;48.072;11.970;2023-03-11T06:05:06;0.41;78.08
65207;SHT31;58477;48.072;11.970;2023-03-11T06:07:34;0.44;78.22
65207;SHT31;58477;48.072;11.970;2023-03-11T06:09:59;0.49;78.36
65207;SHT31;58477;48.072;11.970;2023-03-11T06:12:25;0.48;76.50
65207;SHT31;58477;48.072;11.970;2023-03-11T06:15:06;0.42;76.04
65207;SHT31;58477;48.072;11.970;2023-03-11T06:17:31;0.41;75.91
65207;SHT31;58477;48.072;11.970;2023-03-11T06:19:58;0.47;76.12
65207;SHT31;58477;48.072;11.970;2023-03-11T06:22:24;0.47;75.74
65207;SHT31;58477;48.072;11.970;2023-03-11T06:24:49;0.44;76.22
65207;SHT31;58477;48.072;11.970;2023-03-11T06:27:15;0.49;75.42
65207;SHT31;58477;48.072;11.970;2023-03-11T06:29:41;0.52;75.38
65207;SHT31;58477;48.072;11.970;2023-03-11T06:32:08;0.54;75.00
65207;SHT31;58477;48.072;11.970;2023-03-11T06:34:34;0.52;74.23
65207;SHT31;58477;48.072;11.970;2023-03-11T06:37:00;0.51;75.26
65207;SHT31;58477;48.072;11.970;2023-03-11T06:39:25;0.57;74.76
65207;SHT31;58477;48.072;11.970;2023-03-11T06:41:52;0.59;74.49
65207;SHT31;58477;48.072;11.970;2023-03-11T06:44:17;0.69;74.19
65207;SHT31;58477;48.072;11.970;2023-03-11T06:46:43;0.58;73.47
65207;SHT31;58477;48.072;11.970;2023-03-11T06:49:09;0.55;72.37
65207;SHT31;58477;48.072;11.970;2023-03-11T06:51:36;0.55;72.13
65207;SHT31;58477;48.072;11.970;2023-03-11T06:54:02;0.59;72.23
65207;SHT31;58477;48.072;11.970;2023-03-11T06:56:27;0.49;71.65
65207;SHT31;58477;48.072;11.970;2023-03-11T06:58:58;0.66;72.40
65207;SHT31;58477;48.072;11.970;2023-03-11T07:01:28;0.76;72.01
65207;SHT31;58477;48.072;11.970;2023-03-11T07:03:55;0.69;72.04
65207;SHT31;58477;48.072;11.970;2023-03-11T07:06:25;0.65;72.50
65207;SHT31;58477;48.072;11.970;2023-03-11T07:08:55;0.82;72.91
65207;SHT31;58477;48.072;11.970;2023-03-11T07:11:25;0.89;72.23
65207;SHT31;58477;48.072;11.970;2023-03-11T07:13:55;0.93;72.34
65207;SHT31;58477;48.072;11.970;2023-03-11T07:16:25;1.13;72.72
65207;SHT31;58477;48.072;11.970;2023-03-11T07:18:59;1.26;72.87
65207;SHT31;58477;48.072;11.970;2023-03-11T07:21:26;1.07;71.80
65207;SHT31;58477;48.072;11.970;2023-03-11T07:23:56;1.07;72.86
65207;SHT31;58477;48.072;11.970;2023-03-11T07:26:23;1.13;72.22
65207;SHT31;58477;48.072;11.970;2023-03-11T07:28:49;1.17;72.83
65207;SHT31;58477;48.072;11.970;2023-03-11T07:31:17;1.20;72.41
65207;SHT31;58477;48.072;11.970;2023-03-11T07:33:44;1.12;72.44
65207;SHT31;58477;48.072;11.970;2023-03-11T07:36:12;1.27;72.67
65207;SHT31;58477;48.072;11.970;2023-03-11T07:38:38;1.60;72.21
65207;SHT31;58477;48.072;11.970;2023-03-11T07:41:04;1.36;71.09
65207;SHT31;58477;48.072;11.970;2023-03-11T07:43:31;1.88;70.63
65207;SHT31;58477;48.072;11.970;2023-03-11T07:46:14;3.07;68.01
65207;SHT31;58477;48.072;11.970;2023-03-11T07:48:43;3.07;67.14
65207;SHT31;58477;48.072;11.970;2023-03-11T07:53:38;2.89;67.36
65207;SHT31;58477;48.072;11.970;2023-03-11T07:56:08;2.69;67.40
65207;SHT31;58477;48.072;11.970;2023-03-11T07:58:34;3.77;64.83
65207;SHT31;58477;48.072;11.970;2023-03-11T08:01:08;4.45;64.05
65207;SHT31;58477;48.072;11.970;2023-03-11T08:04:10;4.45;61.65
65207;SHT31;58477;48.072;11.970;2023-03-11T08:06:36;4.71;61.13
65207;SHT31;58477;48.072;11.970;2023-03-11T08:09:04;4.88;61.87
65207;SHT31;58477;48.072;11.970;2023-03-11T08:11:31;3.55;62.87
65207;SHT31;58477;48.072;11.970;2023-03-11T08:13:56;2.54;67.38
65207;SHT31;58477;48.072;11.970;2023-03-11T08:16:23;2.31;69.93
65207;SHT31;58477;48.072;11.970;2023-03-11T08:18:50;3.81;65.48
65207;SHT31;58477;48.072;11.970;2023-03-11T08:21:22;4.60;61.13
65207;SHT31;58477;48.072;11.970;2023-03-11T08:23:49;4.06;62.09
65207;SHT31;58477;48.072;11.970;2023-03-11T08:26:17;4.49;62.21
65207;SHT31;58477;48.072;11.970;2023-03-11T08:28:43;5.51;61.07
65207;SHT31;58477;48.072;11.970;2023-03-11T08:33:42;7.29;53.66
65207;SHT31;58477;48.072;11.970;2023-03-11T08:36:08;6.19;56.84
65207;SHT31;58477;48.072;11.970;2023-03-11T08:38:33;5.20;58.41
65207;SHT31;58477;48.072;11.970;2023-03-11T08:40:58;4.15;61.08
65207;SHT31;58477;48.072;11.970;2023-03-11T08:43:25;3.82;62.36
65207;SHT31;58477;48.072;11.970;2023-03-11T08:45:51;3.06;64.63
65207;SHT31;58477;48.072;11.970;2023-03-11T08:52:04;2.05;67.00
65207;SHT31;58477;48.072;11.970;2023-03-11T08:54:30;2.05;68.21
65207;SHT31;58477;48.072;11.970;2023-03-11T08:56:56;2.04;67.35
65207;SHT31;58477;48.072;11.970;2023-03-11T08:59:29;2.99;65.45
65207;SHT31;58477;48.072;11.970;2023-03-11T09:01:55;4.17;62.44
65207;SHT31;58477;48.072;11.970;2023-03-11T09:04:20;5.01;60.88
65207;SHT31;58477;48.072;11.970;2023-03-11T09:06:46;6.58;57.30
65207;SHT31;58477;48.072;11.970;2023-03-11T09:09:13;6.92;54.81
65207;SHT31;58477;48.072;11.970;2023-03-11T09:11:40;7.02;54.85
65207;SHT31;58477;48.072;11.970;2023-03-11T09:14:06;7.53;54.28
65207;SHT31;58477;48.072;11.970;2023-03-11T09:16:32;6.75;55.09
65207;SHT31;58477;48.072;11.970;2023-03-11T09:18:57;6.68;55.07
65207;SHT31;58477;48.072;11.970;2023-03-11T09:21:24;5.24;59.35
65207;SHT31;58477;48.072;11.970;2023-03-11T09:23:50;5.83;58.83
65207;SHT31;58477;48.072;11.970;2023-03-11T09:26:15;4.26;61.85
65207;SHT31;58477;48.072;11.970;2023-03-11T09:28:41;5.77;58.65
65207;SHT31;58477;48.072;11.970;2023-03-11T09:31:06;6.81;55.29
65207;SHT31;58477;48.072;11.970;2023-03-11T09:36:42;5.28;57.52
65207;SHT31;58477;48.072;11.970;2023-03-11T09:39:08;5.01;58.73
65207;SHT31;58477;48.072;11.970;2023-03-11T09:44:26;4.67;59.00
65207;SHT31;58477;48.072;11.970;2023-03-11T09:47:23;4.71;59.87
65207;SHT31;58477;48.072;11.970;2023-03-11T09:52:52;4.95;59.25
65207;SHT31;58477;48.072;11.970;2023-03-11T10:00:53;5.86;57.42
65207;SHT31;58477;48.072;11.970;2023-03-11T10:03:31;5.39;56.84
65207;SHT31;58477;48.072;11.970;2023-03-11T10:06:20;5.08;57.71
65207;SHT31;58477;48.072;11.970;2023-03-11T10:14:36;3.40;61.28
65207;SHT31;58477;48.072;11.970;2023-03-11T10:17:28;4.57;58.57
65207;SHT31;58477;48.072;11.970;2023-03-11T10:20:19;4.47;57.93
65207;SHT31;58477;48.072;11.970;2023-03-11T10:23:06;4.10;55.41
65207;SHT31;58477;48.072;11.970;2023-03-11T10:28:13;4.69;56.16
65207;SHT31;58477;48.072;11.970;2023-03-11T10:31:02;6.38;53.27
65207;SHT31;58477;48.072;11.970;2023-03-11T10:33:45;8.86;48.05
65207;SHT31;58477;48.072;11.970;2023-03-11T10:36:18;9.53;48.81
65207;SHT31;58477;48.072;11.970;2023-03-11T10:38:49;8.45;48.64
65207;SHT31;58477;48.072;11.970;2023-03-11T10:41:39;7.38;52.93
65207;SHT31;58477;48.072;11.970;2023-03-11T10:44:13;6.34;54.25
65207;SHT31;58477;48.072;11.970;2023-03-11T10:46:39;5.96;55.63
65207;SHT31;58477;48.072;11.970;2023-03-11T10:49:12;6.02;54.26
65207;SHT31;58477;48.072;11.970;2023-03-11T10:51:38;5.38;54.99
65207;SHT31;58477;48.072;11.970;2023-03-11T10:54:04;4.52;56.68
65207;SHT31;58477;48.072;11.970;2023-03-11T10:56:38;5.01;56.08
65207;SHT31;58477;48.072;11.970;2023-03-11T10:59:29;5.28;55.09
65207;SHT31;58477;48.072;11.970;2023-03-11T11:01:57;5.42;53.91
65207;SHT31;58477;48.072;11.970;2023-03-11T11:04:38;6.60;55.67
65207;SHT31;58477;48.072;11.970;2023-03-11T11:07:30;8.10;49.76
65207;SHT31;58477;48.072;11.970;2023-03-11T11:15:21;7.67;49.40
65207;SHT31;58477;48.072;11.970;2023-03-11T11:17:47;8.78;46.42
65207;SHT31;58477;48.072;11.970;2023-03-11T11:20:16;10.25;45.38
65207;SHT31;58477;48.072;11.970;2023-03-11T11:22:54;9.83;46.42
65207;SHT31;58477;48.072;11.970;2023-03-11T11:25:26;9.34;45.81
65207;SHT31;58477;48.072;11.970;2023-03-11T11:28:16;9.71;45.38
65207;SHT31;58477;48.072;11.970;2023-03-11T11:30:59;8.69;47.20
65207;SHT31;58477;48.072;11.970;2023-03-11T11:33:34;7.45;48.47
65207;SHT31;58477;48.072;11.970;2023-03-11T11:36:03;7.73;50.96
65207;SHT31;58477;48.072;11.970;2023-03-11T11:38:31;6.85;51.33
65207;SHT31;58477;48.072;11.970;2023-03-11T11:41:02;6.45;52.69
65207;SHT31;58477;48.072;11.970;2023-03-11T11:43:55;6.34;53.49
65207;SHT31;58477;48.072;11.970;2023-03-11T11:46:27;5.36;55.77
65207;SHT31;58477;48.072;11.970;2023-03-11T11:54:42;9.10;47.14
65207;SHT31;58477;48.072;11.970;2023-03-11T11:57:14;8.88;47.25
65207;SHT31;58477;48.072;11.970;2023-03-11T11:59:40;9.36;45.27
65207;SHT31;58477;48.072;11.970;2023-03-11T12:02:23;8.95;44.89
65207;SHT31;58477;48.072;11.970;2023-03-11T12:04:56;8.21;47.26
65207;SHT31;58477;48.072;11.970;2023-03-11T12:07:54;7.53;51.31
65207;SHT31;58477;48.072;11.970;2023-03-11T12:10:33;8.03;50.17
65207;SHT31;58477;48.072;11.970;2023-03-11T12:15:40;7.26;50.76
65207;SHT31;58477;48.072;11.970;2023-03-11T12:18:15;8.05;50.21
65207;SHT31;58477;48.072;11.970;2023-03-11T12:21:10;7.73;51.35
65207;SHT31;58477;48.072;11.970;2023-03-11T12:26:37;7.50;52.74
65207;SHT31;58477;48.072;11.970;2023-03-11T12:29:12;8.33;50.71
65207;SHT31;58477;48.072;11.970;2023-03-11T12:31:39;7.87;51.19
65207;SHT31;58477;48.072;11.970;2023-03-11T12:34:09;7.52;51.40
65207;SHT31;58477;48.072;11.970;2023-03-11T12:36:40;7.74;50.23
65207;SHT31;58477;48.072;11.970;2023-03-11T12:39:23;8.07;50.21
65207;SHT31;58477;48.072;11.970;2023-03-11T12:44:34;7.83;50.63
65207;SHT31;58477;48.072;11.970;2023-03-11T12:47:03;7.22;49.68
65207;SHT31;58477;48.072;11.970;2023-03-11T12:49:41;7.05;51.55
65207;SHT31;58477;48.072;11.970;2023-03-11T12:54:37;6.99;51.98
65207;SHT31;58477;48.072;11.970;2023-03-11T13:06:03;6.99;52.66
65207;SHT31;58477;48.072;11.970;2023-03-11T13:16:39;6.50;52.56
65207;SHT31;58477;48.072;11.970;2023-03-11T13:22:00;6.45;53.73
65207;SHT31;58477;48.072;11.970;2023-03-11T13:40:32;5.95;55.31
65207;SHT31;58477;48.072;11.970;2023-03-11T13:46:36;5.92;55.59
65207;SHT31;58477;48.072;11.970;2023-03-11T13:49:13;5.76;56.13
65207;SHT31;58477;48.072;11.970;2023-03-11T13:51:46;5.89;55.78
65207;SHT31;58477;48.072;11.970;2023-03-11T13:56:53;6.10;55.97
65207;SHT31;58477;48.072;11.970;2023-03-11T13:59:29;6.00;56.24
65207;SHT31;58477;48.072;11.970;2023-03-11T14:01:58;6.00;56.70
65207;SHT31;58477;48.072;11.970;2023-03-11T14:04:31;5.85;54.82
65207;SHT31;58477;48.072;11.970;2023-03-11T14:06:58;5.59;55.50
65207;SHT31;58477;48.072;11.970;2023-03-11T14:09:25;5.63;54.88
65207;SHT31;58477;48.072;11.970;2023-03-11T14:11:53;6.03;53.23
65207;SHT31;58477;48.072;11.970;2023-03-11T14:17:05;5.85;55.78
65207;SHT31;58477;48.072;11.970;2023-03-11T14:19:34;5.65;53.73
65207;SHT31;58477;48.072;11.970;2023-03-11T14:22:00;5.80;56.90
65207;SHT31;58477;48.072;11.970;2023-03-11T14:24:28;5.70;55.56
65207;SHT31;58477;48.072;11.970;2023-03-11T14:26:56;5.52;56.42
65207;SHT31;58477;48.072;11.970;2023-03-11T14:29:42;5.48;56.76
65207;SHT31;58477;48.072;11.970;2023-03-11T14:32:27;5.38;57.07
65207;SHT31;58477;48.072;11.970;2023-03-11T14:34:53;5.56;57.52
65207;SHT31;58477;48.072;11.970;2023-03-11T14:37:35;5.49;57.12
65207;SHT31;58477;48.072;11.970;2023-03-11T14:40:01;5.56;56.87
65207;SHT31;58477;48.072;11.970;2023-03-11T14:42:38;5.14;57.37
65207;SHT31;58477;48.072;11.970;2023-03-11T14:48:09;5.28;58.22
65207;SHT31;58477;48.072;11.970;2023-03-11T14:50:37;5.46;58.64
65207;SHT31;58477;48.072;11.970;2023-03-11T14:53:07;5.38;57.73
65207;SHT31;58477;48.072;11.970;2023-03-11T14:55:49;4.98;58.67
65207;SHT31;58477;48.072;11.970;2023-03-11T14:58:29;5.44;60.48
65207;SHT31;58477;48.072;11.970;2023-03-11T15:01:09;5.41;58.10
65207;SHT31;58477;48.072;11.970;2023-03-11T15:03:46;5.48;57.46
65207;SHT31;58477;48.072;11.970;2023-03-11T15:06:22;5.76;57.64
65207;SHT31;58477;48.072;11.970;2023-03-11T15:08:54;5.65;56.17
65207;SHT31;58477;48.072;11.970;2023-03-11T15:11:22;5.49;57.80
65207;SHT31;58477;48.072;11.970;2023-03-11T15:13:50;5.45;57.92
65207;SHT31;58477;48.072;11.970;2023-03-11T15:16:31;5.58;57.87
65207;SHT31;58477;48.072;11.970;2023-03-11T15:21:47;5.27;57.78
65207;SHT31;58477;48.072;11.970;2023-03-11T15:24:19;5.15;59.18
65207;SHT31;58477;48.072;11.970;2023-03-11T15:26:53;4.92;59.09
65207;SHT31;58477;48.072;11.970;2023-03-11T15:29:19;5.07;58.86
65207;SHT31;58477;48.072;11.970;2023-03-11T15:31:46;5.15;58.62
65207;SHT31;58477;48.072;11.970;2023-03-11T15:39:19;4.45;59.22
65207;SHT31;58477;48.072;11.970;2023-03-11T15:44:40;4.74;60.11
65207;SHT31;58477;48.072;11.970;2023-03-11T15:47:12;4.64;59.64
65207;SHT31;58477;48.072;11.970;2023-03-11T15:49:38;4.91;60.60
65207;SHT31;58477;48.072;11.970;2023-03-11T15:52:04;4.77;59.36
65207;SHT31;58477;48.072;11.970;2023-03-11T15:54:30;4.80;59.64
65207;SHT31;58477;48.072;11.970;2023-03-11T15:56:57;4.67;60.63
65207;SHT31;58477;48.072;11.970;2023-03-11T15:59:25;4.32;59.88
65207;SHT31;58477;48.072;11.970;2023-03-11T16:01:51;4.12;62.01
65207;SHT31;58477;48.072;11.970;2023-03-11T16:04:18;3.88;62.03
65207;SHT31;58477;48.072;11.970;2023-03-11T16:06:44;3.86;61.91
65207;SHT31;58477;48.072;11.970;2023-03-11T16:09:11;3.71;62.10
65207;SHT31;58477;48.072;11.970;2023-03-11T16:11:39;3.60;62.97
65207;SHT31;58477;48.072;11.970;2023-03-11T16:14:05;3.50;62.87
65207;SHT31;58477;48.072;11.970;2023-03-11T16:16:31;3.34;63.39
65207;SHT31;58477;48.072;11.970;2023-03-11T16:18:57;3.18;64.23
65207;SHT31;58477;48.072;11.970;2023-03-11T16:21:26;3.21;64.35
65207;SHT31;58477;48.072;11.970;2023-03-11T16:23:55;3.30;64.70
65207;SHT31;58477;48.072;11.970;2023-03-11T16:26:21;3.26;63.16
65207;SHT31;58477;48.072;11.970;2023-03-11T16:28:46;3.07;63.82
65207;SHT31;58477;48.072;11.970;2023-03-11T16:31:12;3.06;64.91
65207;SHT31;58477;48.072;11.970;2023-03-11T16:33:37;3.11;64.81
65207;SHT31;58477;48.072;11.970;2023-03-11T16:36:03;2.79;64.73
65207;SHT31;58477;48.072;11.970;2023-03-11T16:38:29;2.90;64.82
65207;SHT31;58477;48.072;11.970;2023-03-11T16:40:59;2.93;65.01
65207;SHT31;58477;48.072;11.970;2023-03-11T16:43:26;2.86;65.14
65207;SHT31;58477;48.072;11.970;2023-03-11T16:45:52;2.71;65.75
65207;SHT31;58477;48.072;11.970;2023-03-11T16:48:21;2.82;65.83
65207;SHT31;58477;48.072;11.970;2023-03-11T16:50:47;2.76;65.07
65207;SHT31;58477;48.072;11.970;2023-03-11T16:53:13;2.71;65.23
65207;SHT31;58477;48.072;11.970;2023-03-11T16:55:41;2.77;66.25
65207;SHT31;58477;48.072;11.970;2023-03-11T16:58:07;2.73;65.35
65207;SHT31;58477;48.072;11.970;2023-03-11T17:00:32;2.71;65.42
65207;SHT31;58477;48.072;11.970;2023-03-11T17:02:58;2.67;66.46
65207;SHT31;58477;48.072;11.970;2023-03-11T17:05:23;2.71;66.10
65207;SHT31;58477;48.072;11.970;2023-03-11T17:07:53;2.75;66.70
65207;SHT31;58477;48.072;11.970;2023-03-11T17:10:21;2.56;66.05
65207;SHT31;58477;48.072;11.970;2023-03-11T17:12:48;2.75;65.96
65207;SHT31;58477;48.072;11.970;2023-03-11T17:15:14;2.67;65.72
65207;SHT31;58477;48.072;11.970;2023-03-11T17:17:39;2.67;65.96
65207;SHT31;58477;48.072;11.970;2023-03-11T17:20:05;2.59;65.37
65207;SHT31;58477;48.072;11.970;2023-03-11T17:22:31;2.56;66.07
65207;SHT31;58477;48.072;11.970;2023-03-11T17:24:57;2.38;65.02
65207;SHT31;58477;48.072;11.970;2023-03-11T17:27:22;2.43;65.84
65207;SHT31;58477;48.072;11.970;2023-03-11T17:29:48;2.48;66.20
65207;SHT31;58477;48.072;11.970;2023-03-11T17:32:13;2.52;65.42
65207;SHT31;58477;48.072;11.970;2023-03-11T17:34:41;2.52;65.82
65207;SHT31;58477;48.072;11.970;2023-03-11T17:37:07;2.49;65.69
65207;SHT31;58477;48.072;11.970;2023-03-11T17:39:33;2.32;66.01
65207;SHT31;58477;48.072;11.970;2023-03-11T17:41:58;2.31;66.20